Station: Kowen Forest  

  Atmospheric Gas Attenuation - ITU Rec 676-11   ----------------- dB/100km -----------------
Date Time Temp RH % AH g/m3 Dew Point Wind Direction Speed kph Gust kph Barometer mB Rainfall Since 9am 24GHz 47GHz 76GHz 122GHz 134GHz 241GHz
06/05 04:10 1.1 98 5.13 0.8 2 4 1013.1 0 12.6 23.7 31.3 81.7 65.2 220.3
06/05 04:00 1.5 97 5.22 1.1 0 0 1013.1 0 12.8 23.8 31.5 82.3 66.1 223.5
06/05 03:50 1.3 98 5.2 1 0 2 1013.1 0 12.8 23.8 31.5 82.3 66.0 223.1
06/05 03:40 1.1 97 5.08 0.7 6 6 1013.1 0 12.5 23.6 31.1 81.2 64.5 217.9
06/05 03:30 1 97 5.04 0.6 4 6 1013.1 0 12.5 23.6 31.0 80.8 64.0 216.3
06/05 03:20 1.1 97 5.08 0.7 2 4 1013.1 0 12.5 23.6 31.1 81.2 64.5 217.9
06/05 03:10 1.2 97 5.11 0.8 0 2 1013.1 0 12.6 23.7 31.2 81.4 64.8 219.1
06/05 03:00 1 97 5.04 0.6 0 2 1013.1 0 12.5 23.6 31.0 80.8 64.0 216.3
06/05 02:50 1.1 97 5.08 0.7 0 2 1013.1 0 12.5 23.6 31.1 81.2 64.5 217.9
06/05 02:40 0.9 97 5.01 0.5 0 2 1013.1 0 12.4 23.6 30.9 80.6 63.7 215.1
06/05 02:30 0.8 97 4.97 0.4 0 0 1013.1 0 12.3 23.5 30.8 80.3 63.3 213.5
06/05 02:20 1 97 5.04 0.6 4 4 1013.1 0 12.5 23.6 31.0 80.8 64.0 216.3
06/05 02:00 1.3 97 5.15 0.9 4 4 1013.1 0 12.7 23.7 31.3 81.7 65.3 220.7
06/05 01:50 1.5 97 5.22 1.1 2 4 1013.1 0 12.8 23.8 31.5 82.3 66.1 223.5
06/05 01:40 1.1 97 5.08 0.7 2 4 1013.1 0 12.5 23.6 31.1 81.2 64.5 217.9
06/05 01:30 1.4 96 5.13 0.9 4 4 1013.1 0 12.6 23.6 31.2 81.4 64.9 219.5
06/05 01:20 2.1 96 5.38 1.6 0 0 1013.1 0 13.1 23.9 32.0 83.4 67.7 229.4
06/05 01:10 1.6 96 5.2 1.1 2 4 1013.1 0 12.8 23.7 31.4 82.0 65.7 222.3
06/05 01:00 1.7 97 5.29 1.3 4 4 1013.1 0 13.0 23.8 31.8 82.9 66.9 226.3
06/05 00:50 2.3 97 5.51 1.9 0 0 1013.1 0 13.4 24.0 32.4 84.7 69.3 235.1
06/05 00:40 1.9 96 5.3 1.4 2 4 1013.1 0 13.0 23.8 31.7 82.8 66.8 226.2
06/05 00:30 2.1 96 5.38 1.6 4 6 1013.1 0 13.1 23.9 32.0 83.4 67.7 229.4
06/05 00:20 2.9 96 5.67 2.4 0 4 1013.1 0 13.7 24.1 32.8 85.8 71.0 240.9
06/05 00:10 3 97 5.77 2.6 6 6 1013.1 0 14.0 24.3 33.2 86.8 72.2 245.4
06/05 00:00 2.5 96 5.52 2 4 6 1013.1 0 13.4 24.0 32.4 84.5 69.3 234.9
05/05 23:50 2.9 96 5.67 2.4 4 6 1013.1 0 13.7 24.1 32.8 85.8 71.0 240.9
05/05 23:40 3.2 97 5.85 2.8 2 4 1013.1 0 14.1 24.4 33.5 87.4 73.2 248.6
05/05 23:30 2.9 96 5.67 2.3 4 6 1013.1 0 13.7 24.1 32.8 85.8 71.0 240.9
05/05 23:20 3.6 97 6.01 3.1 0 2 1013.1 0 14.5 24.5 34.0 88.8 75.0 255.0
05/05 23:10 3.4 97 5.93 2.9 0 4 1013.1 0 14.3 24.4 33.7 88.1 74.1 251.8
05/05 23:00 3.9 96 6.07 3.3 0 4 1013.1 0 14.6 24.5 34.1 89.1 75.5 256.9
05/05 22:50 4.4 97 6.34 3.9 2 4 1013.1 0 15.1 24.8 35.0 91.5 78.7 268.2
05/05 22:40 4.4 95 6.21 3.7 2 4 1013.1 0 14.9 24.6 34.4 90.1 76.9 261.9
05/05 22:30 4.5 96 6.32 3.9 2 4 1013.1 0 15.1 24.8 34.9 91.2 78.3 266.9
05/05 22:10 4.8 95 6.38 4.1 0 2 1013.1 0 15.2 24.8 35.0 91.5 78.8 268.7
05/05 22:00 5.3 95 6.59 4.6 2 4 1013.1 0 15.6 25.0 35.6 93.2 81.2 277.1
05/05 21:50 5.3 95 6.59 4.6 2 4 1013.1 0 15.6 25.0 35.6 93.2 81.2 277.1
05/05 21:40 5.6 96 6.79 5 2 6 1013.1 0 16.1 25.3 36.3 95.1 83.6 285.6
05/05 21:30 5.7 95 6.76 5 6 6 1013.1 0 16.0 25.2 36.1 94.6 83.1 283.8
05/05 21:20 5.9 95 6.85 5.2 7 9 1013.1 0 16.2 25.3 36.4 95.4 84.1 287.4
05/05 21:10 5.6 95 6.72 4.8 6 7 1013.1 0 15.9 25.1 36.0 94.3 82.7 282.3
05/05 21:00 6.2 93 6.84 5.2 4 4 1013.1 0 16.1 25.2 36.2 94.9 83.7 285.9
05/05 20:50 6.6 91 6.87 5.3 2 6 1013.1 0 16.2 25.1 36.2 94.8 83.6 285.8
05/05 20:40 7.2 91 7.15 5.8 2 6 1013.1 0 16.8 25.4 37.1 97.1 86.8 297.0
05/05 20:30 7.5 90 7.21 6 6 7 1013.1 0 16.9 25.4 37.2 97.4 87.3 298.7
05/05 20:20 8 88 7.28 6.2 4 6 1013.1 0 17.0 25.4 37.2 97.6 87.7 300.1
05/05 20:10 8.3 87 7.34 6.3 4 6 1013.1 0 17.1 25.4 37.3 97.8 88.1 301.8
05/05 20:00 8.4 87 7.38 6.3 4 6 1013.1 0 17.2 25.4 37.5 98.2 88.6 303.4
05/05 19:50 8.5 86 7.35 6.3 4 7 1013.1 0 17.2 25.4 37.3 97.7 88.1 301.5
05/05 19:40 8.4 87 7.38 6.3 6 7 1013.1 0 17.2 25.4 37.5 98.2 88.6 303.4
05/05 19:30 8.5 86 7.35 6.3 7 9 1013.1 0 17.2 25.4 37.3 97.7 88.1 301.5
05/05 19:20 9 82 7.23 6.2 9 11 1013.1 0 16.9 25.0 36.6 95.8 85.9 294.0
05/05 19:10 9.6 81 7.42 6.5 9 11 1013.1 0 17.3 25.2 37.1 97.1 87.7 300.6
05/05 19:00 9.9 79 7.38 6.5 9 13 1013.1 0 17.2 25.0 36.8 96.3 86.9 297.6
05/05 18:50 9.9 80 7.47 6.6 9 11 1013.1 0 17.3 25.2 37.1 97.3 88.1 301.8
05/05 18:40 9.9 80 7.47 6.6 9 13 1013.1 0 17.3 25.2 37.1 97.3 88.1 301.8
05/05 18:30 10 80 7.52 6.7 9 11 1013.1 0 17.5 25.2 37.3 97.7 88.6 303.8
05/05 18:20 10.4 78 7.52 6.7 9 9 1013.1 0 17.4 25.1 37.1 97.2 88.2 302.2
05/05 18:10 10.6 77 7.52 6.8 7 9 1013.1 0 17.4 25.1 37.0 96.9 87.9 301.4
05/05 18:00 11 75 7.51 6.8 7 11 1013.1 0 17.4 24.9 36.8 96.3 87.4 299.5
05/05 17:50 11.1 75 7.56 6.9 7 11 1013.1 0 17.5 25.0 36.9 96.8 87.9 301.4
05/05 17:40 11.4 74 7.6 7 9 13 1013.1 0 17.6 25.0 36.9 96.8 88.1 302.1
05/05 17:20 12.1 72 7.72 7.2 9 13 1013.1 0 17.8 25.0 37.1 97.2 88.9 304.9
05/05 17:10 12.7 69 7.68 7.1 11 13 1013.1 0 17.7 24.7 36.7 96.1 87.7 300.8
05/05 17:00 13.6 66 7.77 7.4 9 11 1013.1 0 17.8 24.6 36.6 95.9 87.8 301.4
05/05 16:50 14.1 64 7.77 7.4 11 13 1013.1 0 17.8 24.5 36.4 95.3 87.3 299.5
05/05 16:40 14.3 63 7.74 7.5 11 17 1013.1 0 17.7 24.4 36.2 94.8 86.7 297.4
05/05 16:30 14.6 61 7.63 7.2 13 19 1013.1 0 17.5 24.1 35.6 93.3 84.9 291.4
05/05 16:20 15.1 59 7.61 7.1 11 15 1013.1 0 17.4 24.0 35.3 92.5 84.1 288.7
05/05 16:10 15.4 59 7.75 7.4 9 13 1013.1 0 17.7 24.1 35.7 93.6 85.6 293.8
05/05 16:00 15.3 59 7.7 7.3 13 15 1013.1 0 17.6 24.1 35.6 93.2 85.1 292.0
05/05 15:50 15.6 57 7.58 7.3 13 15 1013.1 0 17.3 23.8 35.0 91.6 83.2 285.6
05/05 15:40 15.6 56 7.45 6.8 13 17 1013.1 0 17.1 23.6 34.5 90.3 81.6 280.0
05/05 15:30 15.7 56 7.49 7.1 13 17 1013.1 0 17.1 23.6 34.6 90.6 82.0 281.4
05/05 15:20 15.5 57 7.53 7 15 19 1013.1 0 17.2 23.7 34.8 91.2 82.7 283.8
05/05 15:10 15.7 55 7.36 6.8 15 17 1013.1 0 16.9 23.4 34.1 89.3 80.4 275.8
05/05 15:00 16 56 7.63 7.3 11 19 1013.1 0 17.4 23.8 35.0 91.7 83.4 286.4
05/05 14:50 15.8 56 7.54 7.2 13 17 1013.1 0 17.2 23.7 34.7 91.0 82.5 283.2
05/05 14:40 15.6 57 7.58 7.2 13 17 1013.1 0 17.3 23.8 35.0 91.6 83.2 285.6
05/05 14:30 15.6 56 7.45 6.8 17 19 1013.1 0 17.1 23.6 34.5 90.3 81.6 280.0
05/05 14:20 15.5 56 7.4 6.9 15 20 1013.1 0 17.0 23.5 34.4 89.9 81.1 278.2
05/05 14:10 15.7 56 7.49 7.1 17 20 1013.1 0 17.1 23.6 34.6 90.6 82.0 281.4
05/05 14:00 15.6 55 7.31 6.7 17 24 1013.1 0 16.8 23.4 34.0 88.9 79.9 273.9
05/05 13:50 15.8 53 7.13 6.4 15 19 1013.1 0 16.4 23.1 33.2 86.9 77.5 265.6
05/05 13:40 15.5 50 6.61 5.2 19 26 1013.1 0 15.3 22.4 31.4 82.1 71.5 244.5
05/05 13:30 15.7 54 7.22 6.4 17 19 1013.1 0 16.6 23.2 33.6 87.9 78.7 269.7
05/05 13:20 15.8 51 6.86 5.8 13 17 1013.1 0 15.8 22.7 32.2 84.3 74.2 254.1
05/05 13:10 15.6 54 7.18 6.3 17 20 1013.1 0 16.5 23.2 33.5 87.6 78.3 268.4
05/05 13:00 15.2 51 6.62 5.2 19 20 1013.1 0 15.3 22.5 31.6 82.6 71.9 245.8
05/05 12:50 15.2 54 7.01 6.1 17 20 1013.1 0 16.1 23.0 33.0 86.4 76.6 262.4
05/05 12:40 15 55 7.05 6.2 17 20 1013.1 0 16.2 23.1 33.3 87.0 77.3 264.8
05/05 12:30 15.1 55 7.1 6.1 15 20 1013.1 0 16.3 23.2 33.4 87.4 77.8 266.6
05/05 12:20 15.1 52 6.71 5.5 15 20 1013.1 0 15.5 22.6 32.0 83.5 73.1 249.9
05/05 12:10 14.7 58 7.3 6.5 19 22 1013.1 0 16.8 23.6 34.3 89.8 80.7 276.6
05/05 12:00 14.5 57 7.09 6.1 20 22 1013.1 0 16.3 23.3 33.6 87.9 78.3 268.2
05/05 11:50 14.6 52 6.51 5 17 22 1013.1 0 15.1 22.4 31.4 82.1 71.1 243.0
05/05 11:40 14.4 55 6.8 5.6 20 26 1013.1 0 15.7 22.9 32.6 85.2 74.8 256.0
05/05 11:30 14.3 57 7 5.9 20 24 1013.1 0 16.2 23.2 33.4 87.3 77.4 264.9
05/05 11:10 14.2 56 6.84 5.6 15 17 1013.1 0 15.8 23.0 32.8 85.8 75.5 258.3
05/05 11:00 14 58 7 5.9 17 19 1013.1 0 16.2 23.3 33.5 87.6 77.7 265.9

Last Refresh: 06-May-2026 04:01:30

Bureau of Meteorology